»·PEaware :: N3891R KSBD-KMHV

N3891R :: KSBD-KMHV

FLIGHT INFORMATION

Flight Status: Arrived
Operator: Privately registered:
United States
More flights under this callsign
Pilot: Markus B. (22479)
Aircraft: BEECH AIRCRAFT BARON
(BE58)
More flights by this aircraft type
Origin: KSBD San Bernardino Intl
United States
Destination: KMHV Mojave
United States
More flights between these airports :: More routes between these airports
Route: +PDZ V442 APLES PMD
File this flight plan on PilotEdge
Remarks:
Altitude:
(Current/Filed)
11,000ft
Speed:
(Current/Filed)
180kts
Departed: 04-Oct-20 08:26 AM
Arrived: 04-Oct-20 09:41 AM
Distance/Time
Traveled:
74nm/1:15
Distance/Time
To Go:
Arrived

Flight Plot

Page will automatically refresh every two minutes.

Flight plan parsing failed; only flown route is shown


Map Options




Map Legend


Flown Route
Filed Route
Departure Airport
Arrival Airport
Navaid (VOR, NDB)
Fix

Horizontal Profiles

Position Reports

Time Latitude Longitude Heading Altitude Ground
Speed
04-Oct-20 08:03 34.099983 -117.242393 166 1102ft 0kts
04-Oct-20 08:04 34.099983 -117.242393 166 1102ft 0kts
04-Oct-20 08:05 34.099983 -117.242393 166 1102ft 0kts
04-Oct-20 08:06 34.099983 -117.242393 166 1102ft 0kts
04-Oct-20 08:07 34.099983 -117.242393 166 1102ft 0kts
04-Oct-20 08:08 34.099983 -117.242393 166 1102ft 0kts
04-Oct-20 08:09 34.099983 -117.242393 166 1102ft 0kts
04-Oct-20 08:10 34.099983 -117.242393 166 1102ft 0kts
04-Oct-20 08:11 34.099983 -117.242393 166 1102ft 0kts
04-Oct-20 08:12 34.099983 -117.242393 166 1102ft 0kts
04-Oct-20 08:13 34.099983 -117.242393 166 1102ft 0kts
04-Oct-20 08:14 34.099983 -117.242393 166 1102ft 0kts
04-Oct-20 08:15 34.099983 -117.242393 166 1102ft 0kts
04-Oct-20 08:16 34.099983 -117.242393 166 1102ft 0kts
04-Oct-20 08:17 34.099983 -117.242393 166 1102ft 0kts
04-Oct-20 08:18 34.099983 -117.242393 166 1102ft 0kts
04-Oct-20 08:19 34.099983 -117.242393 166 1102ft 0kts
04-Oct-20 08:20 34.099946 -117.242381 164 1102ft 3kts
04-Oct-20 08:21 34.096628 -117.241911 185 1099ft 19kts
04-Oct-20 08:22 34.094767 -117.242701 247 1098ft 20kts
04-Oct-20 08:23 34.092364 -117.250780 240 1082ft 16kts
04-Oct-20 08:24 34.091847 -117.250888 160 1082ft 0kts
04-Oct-20 08:25 34.091831 -117.246599 69 1090ft 81kts
04-Oct-20 08:26 34.090769 -117.250114 70 1082ft 0kts
04-Oct-20 08:41 34.097461 -117.242665 108 1098ft 0kts
04-Oct-20 08:42 34.097461 -117.242665 108 1098ft 0kts
04-Oct-20 08:43 34.097020 -117.242110 152 1099ft 14kts
04-Oct-20 08:44 34.094388 -117.244055 254 1095ft 14kts
04-Oct-20 08:45 34.092972 -117.248968 250 1085ft 16kts
04-Oct-20 08:46 34.091775 -117.250855 160 1082ft 0kts
04-Oct-20 08:47 34.091092 -117.250368 136 1082ft 11kts
04-Oct-20 08:48 34.096333 -117.230522 80 1841ft 88kts
04-Oct-20 08:49 34.081265 -117.235411 233 2846ft 102kts
04-Oct-20 08:50 34.064482 -117.264241 235 3872ft 121kts
04-Oct-20 08:51 34.043376 -117.302134 236 4998ft 142kts
04-Oct-20 08:52 34.021173 -117.342544 236 5963ft 154kts
04-Oct-20 08:53 33.995081 -117.390255 236 6002ft 180kts
04-Oct-20 08:54 33.967085 -117.441371 236 5932ft 184kts
04-Oct-20 08:55 33.938818 -117.492784 236 5926ft 183kts
04-Oct-20 08:56 33.944728 -117.538083 2 5946ft 179kts
04-Oct-20 08:57 33.981075 -117.498513 37 5946ft 183kts
04-Oct-20 08:58 34.021815 -117.468793 28 6720ft 154kts
04-Oct-20 08:59 34.055433 -117.447998 26 8110ft 125kts
04-Oct-20 09:00 34.085578 -117.429745 26 9301ft 120kts
04-Oct-20 09:01 34.115026 -117.411995 26 10393ft 119kts
04-Oct-20 09:02 34.147048 -117.392682 26 10955ft 150kts
04-Oct-20 09:03 34.187568 -117.368220 26 10975ft 172kts
04-Oct-20 09:04 34.231079 -117.341976 26 10965ft 177kts
04-Oct-20 09:05 34.275847 -117.314911 26 10957ft 182kts
04-Oct-20 09:06 34.321411 -117.287348 26 10940ft 183kts
04-Oct-20 09:07 34.366845 -117.259832 26 10939ft 183kts
04-Oct-20 09:08 34.412783 -117.231973 26 10859ft 185kts
04-Oct-20 09:09 34.458585 -117.204168 26 10846ft 183kts
04-Oct-20 09:10 34.504237 -117.176417 26 10847ft 183kts
04-Oct-20 09:11 34.549686 -117.168370 301 10820ft 180kts
04-Oct-20 09:12 34.556183 -117.228162 275 10889ft 181kts
04-Oct-20 09:14 34.561668 -117.289774 276 10849ft 183kts
04-Oct-20 09:15 34.567358 -117.351223 276 10847ft 183kts
04-Oct-20 09:16 34.573057 -117.412815 276 10847ft 183kts
04-Oct-20 09:17 34.578701 -117.474248 276 10847ft 183kts
04-Oct-20 09:18 34.584358 -117.535821 276 10847ft 183kts
04-Oct-20 09:19 34.589951 -117.597339 276 10847ft 183kts
04-Oct-20 09:20 34.595518 -117.658854 276 10847ft 183kts
04-Oct-20 09:21 34.601044 -117.720251 276 10847ft 183kts
04-Oct-20 09:22 34.606568 -117.781930 276 10683ft 184kts
04-Oct-20 09:23 34.612070 -117.843775 276 10385ft 184kts
04-Oct-20 09:24 34.617598 -117.906226 276 10004ft 187kts
04-Oct-20 09:25 34.623225 -117.970173 276 9461ft 192kts
04-Oct-20 09:26 34.628908 -118.035184 276 8839ft 194kts
04-Oct-20 09:27 34.666459 -118.075991 319 8108ft 198kts
04-Oct-20 09:28 34.700326 -118.126766 306 7600ft 194kts
04-Oct-20 09:28 34.727812 -118.169970 306 7116ft 193kts
04-Oct-20 09:30 34.759180 -118.222006 306 7940ft 165kts
04-Oct-20 09:31 34.787880 -118.267926 308 7956ft 178kts
04-Oct-20 09:32 34.820677 -118.313177 314 7914ft 178kts
04-Oct-20 09:32 34.849226 -118.348903 314 7904ft 173kts
04-Oct-20 09:33 34.887797 -118.359175 33 7641ft 155kts
04-Oct-20 09:35 34.924810 -118.320030 42 7382ft 152kts
04-Oct-20 09:35 34.950235 -118.291277 43 6580ft 147kts
04-Oct-20 09:36 34.977105 -118.260733 42 5356ft 119kts
04-Oct-20 09:37 35.002540 -118.231693 43 4705ft 130kts
04-Oct-20 09:38 35.029773 -118.200618 43 3849ft 136kts
04-Oct-20 09:39 35.056330 -118.169767 53 2942ft 106kts
04-Oct-20 09:40 35.064288 -118.156898 127 2777ft 9kts
04-Oct-20 09:41 35.064189 -118.156766 131 2776ft 0kts
04-Oct-20 09:42 35.061721 -118.156913 196 2770ft 16kts
04-Oct-20 09:43 35.057569 -118.157781 179 2764ft 15kts

Navigation Log

Ident Type
Flight plan parsing failed, navigation log unavailable